sensor_id;sensor_type;location;lat;lon;timestamp;temperature;humidity
11656;DHT22;5884;43.618;1.438;2023-08-07T04:47:59;15.60;99.90
11656;DHT22;5884;43.618;1.438;2023-08-07T04:50:27;15.60;99.90
11656;DHT22;5884;43.618;1.438;2023-08-07T04:52:54;15.50;99.90
11656;DHT22;5884;43.618;1.438;2023-08-07T04:55:21;15.50;99.90
11656;DHT22;5884;43.618;1.438;2023-08-07T04:57:49;15.50;99.90
11656;DHT22;5884;43.618;1.438;2023-08-07T05:00:20;15.50;99.90
11656;DHT22;5884;43.618;1.438;2023-08-07T05:02:49;15.50;99.90
11656;DHT22;5884;43.618;1.438;2023-08-07T05:05:18;15.50;99.90
11656;DHT22;5884;43.618;1.438;2023-08-07T05:07:46;15.50;99.90
11656;DHT22;5884;43.618;1.438;2023-08-07T05:10:14;15.50;99.90
11656;DHT22;5884;43.618;1.438;2023-08-07T05:12:41;15.50;99.90
11656;DHT22;5884;43.618;1.438;2023-08-07T05:15:09;15.50;99.90
11656;DHT22;5884;43.618;1.438;2023-08-07T05:17:36;15.50;99.90
11656;DHT22;5884;43.618;1.438;2023-08-07T05:20:07;15.40;99.90
11656;DHT22;5884;43.618;1.438;2023-08-07T05:22:35;15.50;99.90
11656;DHT22;5884;43.618;1.438;2023-08-07T05:25:03;15.40;99.90
11656;DHT22;5884;43.618;1.438;2023-08-07T05:27:31;15.40;99.90
11656;DHT22;5884;43.618;1.438;2023-08-07T05:29:59;15.30;99.90
11656;DHT22;5884;43.618;1.438;2023-08-07T05:32:27;15.40;99.90
11656;DHT22;5884;43.618;1.438;2023-08-07T05:34:55;15.30;99.90
11656;DHT22;5884;43.618;1.438;2023-08-07T05:37:23;15.30;99.90
11656;DHT22;5884;43.618;1.438;2023-08-07T05:39:52;15.40;99.90
11656;DHT22;5884;43.618;1.438;2023-08-07T05:42:19;15.40;99.90
11656;DHT22;5884;43.618;1.438;2023-08-07T05:44:46;15.40;99.90
11656;DHT22;5884;43.618;1.438;2023-08-07T05:47:14;15.40;99.90
11656;DHT22;5884;43.618;1.438;2023-08-07T05:49:41;15.30;99.90
11656;DHT22;5884;43.618;1.438;2023-08-07T05:52:08;15.30;99.90
11656;DHT22;5884;43.618;1.438;2023-08-07T05:54:37;15.40;99.90
11656;DHT22;5884;43.618;1.438;2023-08-07T05:57:05;15.40;99.90
11656;DHT22;5884;43.618;1.438;2023-08-07T05:59:33;15.40;99.90
11656;DHT22;5884;43.618;1.438;2023-08-07T06:02:01;15.50;99.90
11656;DHT22;5884;43.618;1.438;2023-08-07T06:04:29;15.40;99.90
11656;DHT22;5884;43.618;1.438;2023-08-07T06:06:56;15.50;99.90
11656;DHT22;5884;43.618;1.438;2023-08-07T06:09:24;15.60;99.90
11656;DHT22;5884;43.618;1.438;2023-08-07T06:11:52;15.50;99.90
11656;DHT22;5884;43.618;1.438;2023-08-07T06:14:20;15.60;99.90
11656;DHT22;5884;43.618;1.438;2023-08-07T06:16:47;15.60;99.90
11656;DHT22;5884;43.618;1.438;2023-08-07T06:19:14;15.70;99.90
11656;DHT22;5884;43.618;1.438;2023-08-07T06:21:41;15.60;99.90
11656;DHT22;5884;43.618;1.438;2023-08-07T06:24:09;15.70;99.90
11656;DHT22;5884;43.618;1.438;2023-08-07T06:26:36;15.70;99.90
11656;DHT22;5884;43.618;1.438;2023-08-07T06:29:05;15.70;99.90
11656;DHT22;5884;43.618;1.438;2023-08-07T06:31:32;15.70;99.90
11656;DHT22;5884;43.618;1.438;2023-08-07T06:33:59;15.70;99.90
11656;DHT22;5884;43.618;1.438;2023-08-07T06:36:26;15.70;99.90
11656;DHT22;5884;43.618;1.438;2023-08-07T06:38:54;15.80;99.90
11656;DHT22;5884;43.618;1.438;2023-08-07T06:41:21;15.80;99.90
11656;DHT22;5884;43.618;1.438;2023-08-07T06:43:48;15.80;99.90
11656;DHT22;5884;43.618;1.438;2023-08-07T06:46:18;15.90;99.90
11656;DHT22;5884;43.618;1.438;2023-08-07T06:48:49;16.00;99.90
11656;DHT22;5884;43.618;1.438;2023-08-07T06:51:17;16.10;99.90
11656;DHT22;5884;43.618;1.438;2023-08-07T06:53:44;16.00;99.90
11656;DHT22;5884;43.618;1.438;2023-08-07T06:56:11;16.10;99.90
11656;DHT22;5884;43.618;1.438;2023-08-07T06:58:38;16.20;99.90
11656;DHT22;5884;43.618;1.438;2023-08-07T07:01:06;16.20;99.90
11656;DHT22;5884;43.618;1.438;2023-08-07T07:03:34;16.30;99.90
11656;DHT22;5884;43.618;1.438;2023-08-07T07:06:02;16.30;99.90
11656;DHT22;5884;43.618;1.438;2023-08-07T07:08:29;16.50;99.90
11656;DHT22;5884;43.618;1.438;2023-08-07T07:10:56;16.70;99.90
11656;DHT22;5884;43.618;1.438;2023-08-07T07:13:24;16.80;99.90
11656;DHT22;5884;43.618;1.438;2023-08-07T07:15:55;16.70;99.90
11656;DHT22;5884;43.618;1.438;2023-08-07T07:18:22;16.70;99.90
11656;DHT22;5884;43.618;1.438;2023-08-07T07:20:56;16.80;99.90
11656;DHT22;5884;43.618;1.438;2023-08-07T07:23:24;16.80;99.90
11656;DHT22;5884;43.618;1.438;2023-08-07T07:25:51;16.90;99.90
11656;DHT22;5884;43.618;1.438;2023-08-07T07:28:19;16.80;99.90
11656;DHT22;5884;43.618;1.438;2023-08-07T07:30:46;16.90;99.90
11656;DHT22;5884;43.618;1.438;2023-08-07T07:33:14;16.90;99.90
11656;DHT22;5884;43.618;1.438;2023-08-07T07:35:41;17.00;99.90
11656;DHT22;5884;43.618;1.438;2023-08-07T07:38:10;17.10;99.90
11656;DHT22;5884;43.618;1.438;2023-08-07T07:40:38;17.20;99.90
11656;DHT22;5884;43.618;1.438;2023-08-07T07:43:05;17.30;99.90
11656;DHT22;5884;43.618;1.438;2023-08-07T07:45:32;17.40;99.90
11656;DHT22;5884;43.618;1.438;2023-08-07T07:48:01;17.50;99.90
11656;DHT22;5884;43.618;1.438;2023-08-07T07:50:28;17.50;99.90
11656;DHT22;5884;43.618;1.438;2023-08-07T07:52:56;17.70;99.90
11656;DHT22;5884;43.618;1.438;2023-08-07T07:55:24;17.80;99.90
11656;DHT22;5884;43.618;1.438;2023-08-07T07:57:52;17.80;99.90
11656;DHT22;5884;43.618;1.438;2023-08-07T08:00:20;17.80;99.90
11656;DHT22;5884;43.618;1.438;2023-08-07T08:02:51;17.80;99.90
11656;DHT22;5884;43.618;1.438;2023-08-07T08:05:19;17.90;99.90
11656;DHT22;5884;43.618;1.438;2023-08-07T08:07:46;18.00;99.90
11656;DHT22;5884;43.618;1.438;2023-08-07T08:10:13;18.10;99.90
11656;DHT22;5884;43.618;1.438;2023-08-07T08:12:42;18.10;99.90
11656;DHT22;5884;43.618;1.438;2023-08-07T08:15:10;18.20;99.90
11656;DHT22;5884;43.618;1.438;2023-08-07T08:17:37;18.20;99.90
11656;DHT22;5884;43.618;1.438;2023-08-07T08:20:06;18.30;99.90
11656;DHT22;5884;43.618;1.438;2023-08-07T08:22:34;18.30;99.90
11656;DHT22;5884;43.618;1.438;2023-08-07T08:25:01;18.40;99.90
11656;DHT22;5884;43.618;1.438;2023-08-07T08:27:30;18.40;99.90
11656;DHT22;5884;43.618;1.438;2023-08-07T08:29:58;18.50;99.90
11656;DHT22;5884;43.618;1.438;2023-08-07T08:32:26;18.60;99.90
11656;DHT22;5884;43.618;1.438;2023-08-07T08:34:53;18.70;99.90
11656;DHT22;5884;43.618;1.438;2023-08-07T08:37:21;18.70;99.90
11656;DHT22;5884;43.618;1.438;2023-08-07T08:39:48;18.70;99.90
11656;DHT22;5884;43.618;1.438;2023-08-07T08:42:16;18.90;99.90
11656;DHT22;5884;43.618;1.438;2023-08-07T08:44:48;19.00;99.90
11656;DHT22;5884;43.618;1.438;2023-08-07T08:47:20;18.90;99.90
11656;DHT22;5884;43.618;1.438;2023-08-07T08:49:50;18.90;99.90
11656;DHT22;5884;43.618;1.438;2023-08-07T08:52:21;18.90;99.90
11656;DHT22;5884;43.618;1.438;2023-08-07T08:54:48;19.00;99.90
11656;DHT22;5884;43.618;1.438;2023-08-07T08:57:16;19.20;99.90
11656;DHT22;5884;43.618;1.438;2023-08-07T08:59:44;19.20;99.90
11656;DHT22;5884;43.618;1.438;2023-08-07T09:02:12;19.10;99.90
11656;DHT22;5884;43.618;1.438;2023-08-07T09:04:41;19.30;99.90
11656;DHT22;5884;43.618;1.438;2023-08-07T09:07:09;19.50;99.90
11656;DHT22;5884;43.618;1.438;2023-08-07T09:09:37;19.50;99.90
11656;DHT22;5884;43.618;1.438;2023-08-07T09:12:05;19.50;99.90
11656;DHT22;5884;43.618;1.438;2023-08-07T09:14:34;19.70;99.90
11656;DHT22;5884;43.618;1.438;2023-08-07T09:17:05;19.70;99.90
11656;DHT22;5884;43.618;1.438;2023-08-07T09:19:33;19.90;99.90
11656;DHT22;5884;43.618;1.438;2023-08-07T09:22:01;20.00;99.90
11656;DHT22;5884;43.618;1.438;2023-08-07T09:24:29;20.10;99.90
11656;DHT22;5884;43.618;1.438;2023-08-07T09:26:56;20.20;99.90
11656;DHT22;5884;43.618;1.438;2023-08-07T09:29:24;20.00;99.90
11656;DHT22;5884;43.618;1.438;2023-08-07T09:31:51;19.80;99.90
11656;DHT22;5884;43.618;1.438;2023-08-07T09:34:20;19.70;99.90
11656;DHT22;5884;43.618;1.438;2023-08-07T09:36:48;19.70;99.90
11656;DHT22;5884;43.618;1.438;2023-08-07T09:39:20;19.90;99.90
11656;DHT22;5884;43.618;1.438;2023-08-07T09:41:51;20.10;99.90
11656;DHT22;5884;43.618;1.438;2023-08-07T09:44:18;20.10;99.90
11656;DHT22;5884;43.618;1.438;2023-08-07T09:46:45;20.50;99.90
11656;DHT22;5884;43.618;1.438;2023-08-07T09:49:13;20.40;99.90
11656;DHT22;5884;43.618;1.438;2023-08-07T09:51:44;20.40;99.90
11656;DHT22;5884;43.618;1.438;2023-08-07T09:54:12;20.50;99.90
11656;DHT22;5884;43.618;1.438;2023-08-07T09:56:41;20.80;99.90
11656;DHT22;5884;43.618;1.438;2023-08-07T09:59:08;20.70;99.90
11656;DHT22;5884;43.618;1.438;2023-08-07T10:01:37;20.80;99.90
11656;DHT22;5884;43.618;1.438;2023-08-07T10:04:05;21.00;99.90
11656;DHT22;5884;43.618;1.438;2023-08-07T10:06:33;21.00;99.90
11656;DHT22;5884;43.618;1.438;2023-08-07T10:09:02;21.10;99.90
11656;DHT22;5884;43.618;1.438;2023-08-07T10:11:30;21.00;99.90
11656;DHT22;5884;43.618;1.438;2023-08-07T10:13:59;21.10;99.90
11656;DHT22;5884;43.618;1.438;2023-08-07T10:16:27;21.30;99.90
11656;DHT22;5884;43.618;1.438;2023-08-07T10:18:55;21.40;99.90
11656;DHT22;5884;43.618;1.438;2023-08-07T10:21:23;21.30;99.90
11656;DHT22;5884;43.618;1.438;2023-08-07T10:23:53;21.30;99.90
11656;DHT22;5884;43.618;1.438;2023-08-07T10:26:21;21.30;99.90
11656;DHT22;5884;43.618;1.438;2023-08-07T10:28:51;21.30;99.90
11656;DHT22;5884;43.618;1.438;2023-08-07T10:31:22;21.50;99.90
11656;DHT22;5884;43.618;1.438;2023-08-07T10:33:50;21.70;99.90
11656;DHT22;5884;43.618;1.438;2023-08-07T10:36:18;21.70;99.90
11656;DHT22;5884;43.618;1.438;2023-08-07T10:38:49;21.90;99.90
11656;DHT22;5884;43.618;1.438;2023-08-07T10:41:18;22.00;99.90
11656;DHT22;5884;43.618;1.438;2023-08-07T10:43:46;21.90;99.90
11656;DHT22;5884;43.618;1.438;2023-08-07T10:46:15;21.90;99.90
11656;DHT22;5884;43.618;1.438;2023-08-07T10:48:46;21.70;99.90
11656;DHT22;5884;43.618;1.438;2023-08-07T10:51:15;22.10;99.90
11656;DHT22;5884;43.618;1.438;2023-08-07T10:53:44;22.30;99.90
11656;DHT22;5884;43.618;1.438;2023-08-07T10:56:16;21.90;99.90
11656;DHT22;5884;43.618;1.438;2023-08-07T10:58:50;22.00;99.90
11656;DHT22;5884;43.618;1.438;2023-08-07T11:01:20;22.30;99.90
11656;DHT22;5884;43.618;1.438;2023-08-07T11:03:51;22.20;99.90
11656;DHT22;5884;43.618;1.438;2023-08-07T11:06:22;22.20;99.90
11656;DHT22;5884;43.618;1.438;2023-08-07T11:08:51;22.10;99.90
11656;DHT22;5884;43.618;1.438;2023-08-07T11:11:19;22.20;99.90
11656;DHT22;5884;43.618;1.438;2023-08-07T11:13:47;22.30;99.90
11656;DHT22;5884;43.618;1.438;2023-08-07T11:16:14;22.30;99.90
11656;DHT22;5884;43.618;1.438;2023-08-07T11:18:42;22.30;99.90
11656;DHT22;5884;43.618;1.438;2023-08-07T11:21:11;22.30;99.90
11656;DHT22;5884;43.618;1.438;2023-08-07T11:23:39;22.30;99.90
11656;DHT22;5884;43.618;1.438;2023-08-07T11:26:07;22.50;99.90
11656;DHT22;5884;43.618;1.438;2023-08-07T11:28:35;22.50;99.90
11656;DHT22;5884;43.618;1.438;2023-08-07T11:31:03;22.40;99.90
11656;DHT22;5884;43.618;1.438;2023-08-07T11:33:30;22.40;99.90
11656;DHT22;5884;43.618;1.438;2023-08-07T11:35:58;22.60;99.90
11656;DHT22;5884;43.618;1.438;2023-08-07T11:38:32;22.60;99.90
11656;DHT22;5884;43.618;1.438;2023-08-07T11:41:00;22.50;99.90
11656;DHT22;5884;43.618;1.438;2023-08-07T11:43:28;22.70;99.90
11656;DHT22;5884;43.618;1.438;2023-08-07T11:45:57;22.90;99.90
11656;DHT22;5884;43.618;1.438;2023-08-07T11:48:26;22.60;99.90
11656;DHT22;5884;43.618;1.438;2023-08-07T11:50:55;22.60;99.90
11656;DHT22;5884;43.618;1.438;2023-08-07T11:53:24;22.80;99.90
11656;DHT22;5884;43.618;1.438;2023-08-07T11:55:55;22.70;99.90
11656;DHT22;5884;43.618;1.438;2023-08-07T11:58:25;22.90;99.90
11656;DHT22;5884;43.618;1.438;2023-08-07T12:00:54;23.00;99.90
11656;DHT22;5884;43.618;1.438;2023-08-07T12:03:29;23.20;99.90
11656;DHT22;5884;43.618;1.438;2023-08-07T12:05:58;23.30;99.90
11656;DHT22;5884;43.618;1.438;2023-08-07T12:08:31;23.20;99.90
11656;DHT22;5884;43.618;1.438;2023-08-07T12:11:03;23.30;99.90
11656;DHT22;5884;43.618;1.438;2023-08-07T12:13:31;23.50;99.90
11656;DHT22;5884;43.618;1.438;2023-08-07T12:16:01;23.50;99.90
11656;DHT22;5884;43.618;1.438;2023-08-07T12:18:30;23.40;99.90
11656;DHT22;5884;43.618;1.438;2023-08-07T12:20:59;23.30;99.90
11656;DHT22;5884;43.618;1.438;2023-08-07T12:23:27;23.30;99.90
11656;DHT22;5884;43.618;1.438;2023-08-07T12:25:54;23.50;99.90
11656;DHT22;5884;43.618;1.438;2023-08-07T12:28:23;23.20;99.90
11656;DHT22;5884;43.618;1.438;2023-08-07T12:30:51;23.00;99.90
11656;DHT22;5884;43.618;1.438;2023-08-07T12:33:19;23.20;99.90
11656;DHT22;5884;43.618;1.438;2023-08-07T12:35:46;23.50;99.90
11656;DHT22;5884;43.618;1.438;2023-08-07T12:38:13;23.50;99.90
11656;DHT22;5884;43.618;1.438;2023-08-07T12:40:41;23.70;99.90
11656;DHT22;5884;43.618;1.438;2023-08-07T12:43:08;23.80;99.90
11656;DHT22;5884;43.618;1.438;2023-08-07T12:45:37;23.90;99.90
11656;DHT22;5884;43.618;1.438;2023-08-07T12:48:05;23.80;99.90
11656;DHT22;5884;43.618;1.438;2023-08-07T12:50:33;23.80;99.90
11656;DHT22;5884;43.618;1.438;2023-08-07T12:53:00;23.90;99.90
11656;DHT22;5884;43.618;1.438;2023-08-07T12:55:28;24.00;99.90
11656;DHT22;5884;43.618;1.438;2023-08-07T12:57:56;24.00;99.90
11656;DHT22;5884;43.618;1.438;2023-08-07T13:00:24;24.10;99.90
11656;DHT22;5884;43.618;1.438;2023-08-07T13:02:54;24.20;99.90
11656;DHT22;5884;43.618;1.438;2023-08-07T13:05:22;24.20;99.90
11656;DHT22;5884;43.618;1.438;2023-08-07T13:07:49;24.10;99.90
11656;DHT22;5884;43.618;1.438;2023-08-07T13:10:19;24.20;99.90
11656;DHT22;5884;43.618;1.438;2023-08-07T13:12:48;24.30;99.90
11656;DHT22;5884;43.618;1.438;2023-08-07T13:15:16;24.30;99.90
11656;DHT22;5884;43.618;1.438;2023-08-07T13:17:44;24.30;99.90
11656;DHT22;5884;43.618;1.438;2023-08-07T13:20:14;24.30;99.90
11656;DHT22;5884;43.618;1.438;2023-08-07T13:22:42;24.40;99.90
11656;DHT22;5884;43.618;1.438;2023-08-07T13:25:11;24.30;99.90
11656;DHT22;5884;43.618;1.438;2023-08-07T13:27:39;24.30;99.90
11656;DHT22;5884;43.618;1.438;2023-08-07T13:30:08;24.30;99.90
11656;DHT22;5884;43.618;1.438;2023-08-07T13:32:35;24.30;99.90
11656;DHT22;5884;43.618;1.438;2023-08-07T13:35:03;24.50;99.90
11656;DHT22;5884;43.618;1.438;2023-08-07T13:37:32;24.70;99.90
11656;DHT22;5884;43.618;1.438;2023-08-07T13:40:00;24.80;99.90
11656;DHT22;5884;43.618;1.438;2023-08-07T13:42:30;24.90;99.90
11656;DHT22;5884;43.618;1.438;2023-08-07T13:44:58;24.80;99.90
11656;DHT22;5884;43.618;1.438;2023-08-07T13:47:25;24.90;99.90
11656;DHT22;5884;43.618;1.438;2023-08-07T13:49:52;25.00;99.90
11656;DHT22;5884;43.618;1.438;2023-08-07T13:52:20;25.00;99.90
11656;DHT22;5884;43.618;1.438;2023-08-07T13:54:50;25.10;99.90
11656;DHT22;5884;43.618;1.438;2023-08-07T13:57:17;24.90;99.90
11656;DHT22;5884;43.618;1.438;2023-08-07T13:59:45;24.70;99.90
11656;DHT22;5884;43.618;1.438;2023-08-07T14:02:12;24.80;99.90
11656;DHT22;5884;43.618;1.438;2023-08-07T14:04:39;24.90;99.90
11656;DHT22;5884;43.618;1.438;2023-08-07T14:07:10;24.90;99.90
11656;DHT22;5884;43.618;1.438;2023-08-07T14:09:38;24.90;99.90
11656;DHT22;5884;43.618;1.438;2023-08-07T14:12:08;25.00;99.90
11656;DHT22;5884;43.618;1.438;2023-08-07T14:14:36;25.00;99.90
11656;DHT22;5884;43.618;1.438;2023-08-07T14:17:03;25.00;99.90
11656;DHT22;5884;43.618;1.438;2023-08-07T14:19:31;25.00;99.90
11656;DHT22;5884;43.618;1.438;2023-08-07T14:21:59;25.20;99.90
11656;DHT22;5884;43.618;1.438;2023-08-07T14:24:26;25.30;99.90
11656;DHT22;5884;43.618;1.438;2023-08-07T14:26:53;25.30;99.90
11656;DHT22;5884;43.618;1.438;2023-08-07T14:29:22;25.30;99.90
11656;DHT22;5884;43.618;1.438;2023-08-07T14:31:49;25.20;99.90
11656;DHT22;5884;43.618;1.438;2023-08-07T14:34:16;25.00;99.90
11656;DHT22;5884;43.618;1.438;2023-08-07T14:36:44;24.90;99.90
11656;DHT22;5884;43.618;1.438;2023-08-07T14:39:11;24.90;99.90
11656;DHT22;5884;43.618;1.438;2023-08-07T14:41:38;24.80;99.90
11656;DHT22;5884;43.618;1.438;2023-08-07T14:44:05;24.90;99.90
11656;DHT22;5884;43.618;1.438;2023-08-07T14:46:34;25.00;99.90
11656;DHT22;5884;43.618;1.438;2023-08-07T14:49:01;25.30;99.90
11656;DHT22;5884;43.618;1.438;2023-08-07T14:51:29;25.50;99.90
11656;DHT22;5884;43.618;1.438;2023-08-07T14:53:57;25.70;99.90
11656;DHT22;5884;43.618;1.438;2023-08-07T14:56:24;25.60;99.90
11656;DHT22;5884;43.618;1.438;2023-08-07T14:58:51;25.70;99.90
11656;DHT22;5884;43.618;1.438;2023-08-07T15:01:19;25.50;99.90
11656;DHT22;5884;43.618;1.438;2023-08-07T15:03:47;25.50;99.90
11656;DHT22;5884;43.618;1.438;2023-08-07T15:06:15;25.50;99.90
11656;DHT22;5884;43.618;1.438;2023-08-07T15:08:42;25.50;99.90
11656;DHT22;5884;43.618;1.438;2023-08-07T15:11:09;25.60;99.90
11656;DHT22;5884;43.618;1.438;2023-08-07T15:13:36;25.60;99.90
11656;DHT22;5884;43.618;1.438;2023-08-07T15:16:05;25.60;99.90
11656;DHT22;5884;43.618;1.438;2023-08-07T15:18:33;25.60;99.90
11656;DHT22;5884;43.618;1.438;2023-08-07T15:21:03;25.70;99.90
11656;DHT22;5884;43.618;1.438;2023-08-07T15:23:30;25.70;99.90
11656;DHT22;5884;43.618;1.438;2023-08-07T15:25:57;25.70;99.90
11656;DHT22;5884;43.618;1.438;2023-08-07T15:28:25;25.70;99.90
11656;DHT22;5884;43.618;1.438;2023-08-07T15:30:52;25.60;99.90
11656;DHT22;5884;43.618;1.438;2023-08-07T15:33:20;25.50;99.90
11656;DHT22;5884;43.618;1.438;2023-08-07T15:35:47;25.60;99.90
11656;DHT22;5884;43.618;1.438;2023-08-07T15:38:18;25.40;99.90
11656;DHT22;5884;43.618;1.438;2023-08-07T15:40:45;25.50;99.90
11656;DHT22;5884;43.618;1.438;2023-08-07T15:43:13;25.40;99.90
11656;DHT22;5884;43.618;1.438;2023-08-07T15:45:40;25.50;99.90
11656;DHT22;5884;43.618;1.438;2023-08-07T15:48:07;25.50;99.90
11656;DHT22;5884;43.618;1.438;2023-08-07T15:50:35;25.50;99.90
11656;DHT22;5884;43.618;1.438;2023-08-07T15:53:04;25.50;99.90
11656;DHT22;5884;43.618;1.438;2023-08-07T15:55:33;25.60;99.90
11656;DHT22;5884;43.618;1.438;2023-08-07T15:58:01;25.60;99.90
11656;DHT22;5884;43.618;1.438;2023-08-07T16:00:29;25.60;99.90
11656;DHT22;5884;43.618;1.438;2023-08-07T16:03:00;25.50;99.90
11656;DHT22;5884;43.618;1.438;2023-08-07T16:05:27;25.40;99.90
11656;DHT22;5884;43.618;1.438;2023-08-07T16:07:55;25.40;99.90
11656;DHT22;5884;43.618;1.438;2023-08-07T16:10:22;25.50;99.90
11656;DHT22;5884;43.618;1.438;2023-08-07T16:12:52;25.50;99.90
11656;DHT22;5884;43.618;1.438;2023-08-07T16:15:20;25.50;99.90
11656;DHT22;5884;43.618;1.438;2023-08-07T16:17:48;25.60;99.90
11656;DHT22;5884;43.618;1.438;2023-08-07T16:20:15;25.60;99.40
11656;DHT22;5884;43.618;1.438;2023-08-07T16:22:43;25.50;99.60
11656;DHT22;5884;43.618;1.438;2023-08-07T16:25:10;25.40;99.60
11656;DHT22;5884;43.618;1.438;2023-08-07T16:27:38;25.40;99.90
11656;DHT22;5884;43.618;1.438;2023-08-07T16:30:08;25.50;99.90
11656;DHT22;5884;43.618;1.438;2023-08-07T16:32:37;25.40;99.90
11656;DHT22;5884;43.618;1.438;2023-08-07T16:35:05;25.40;99.90
11656;DHT22;5884;43.618;1.438;2023-08-07T16:37:33;25.60;99.90
11656;DHT22;5884;43.618;1.438;2023-08-07T16:40:01;25.50;99.60
11656;DHT22;5884;43.618;1.438;2023-08-07T16:42:29;25.60;99.10
11656;DHT22;5884;43.618;1.438;2023-08-07T16:44:56;25.50;98.90
11656;DHT22;5884;43.618;1.438;2023-08-07T16:47:25;25.40;99.30
11656;DHT22;5884;43.618;1.438;2023-08-07T16:49:53;25.50;99.90
11656;DHT22;5884;43.618;1.438;2023-08-07T16:52:20;25.40;99.90
11656;DHT22;5884;43.618;1.438;2023-08-07T16:54:47;25.40;99.90
11656;DHT22;5884;43.618;1.438;2023-08-07T16:57:19;25.40;99.90
11656;DHT22;5884;43.618;1.438;2023-08-07T16:59:46;25.40;99.90
11656;DHT22;5884;43.618;1.438;2023-08-07T17:02:14;25.30;99.90
11656;DHT22;5884;43.618;1.438;2023-08-07T17:04:42;25.40;99.90
11656;DHT22;5884;43.618;1.438;2023-08-07T17:07:10;25.40;99.90
11656;DHT22;5884;43.618;1.438;2023-08-07T17:09:37;25.30;99.90
11656;DHT22;5884;43.618;1.438;2023-08-07T17:12:05;25.30;99.90
11656;DHT22;5884;43.618;1.438;2023-08-07T17:14:33;25.20;99.90
11656;DHT22;5884;43.618;1.438;2023-08-07T17:17:00;25.20;99.90
11656;DHT22;5884;43.618;1.438;2023-08-07T17:19:28;25.10;99.90
11656;DHT22;5884;43.618;1.438;2023-08-07T17:21:56;25.00;99.90
11656;DHT22;5884;43.618;1.438;2023-08-07T17:24:23;25.10;99.90
11656;DHT22;5884;43.618;1.438;2023-08-07T17:26:51;25.10;99.90
11656;DHT22;5884;43.618;1.438;2023-08-07T17:29:18;25.10;99.90
11656;DHT22;5884;43.618;1.438;2023-08-07T17:31:45;25.00;99.90
11656;DHT22;5884;43.618;1.438;2023-08-07T17:34:12;25.00;99.90
11656;DHT22;5884;43.618;1.438;2023-08-07T17:36:40;25.00;99.90
11656;DHT22;5884;43.618;1.438;2023-08-07T17:39:09;25.00;99.90
11656;DHT22;5884;43.618;1.438;2023-08-07T17:41:37;25.00;99.90
11656;DHT22;5884;43.618;1.438;2023-08-07T17:44:04;25.00;99.90
11656;DHT22;5884;43.618;1.438;2023-08-07T17:46:31;25.00;99.90
11656;DHT22;5884;43.618;1.438;2023-08-07T17:48:58;24.90;99.90
11656;DHT22;5884;43.618;1.438;2023-08-07T17:51:25;24.80;99.90
11656;DHT22;5884;43.618;1.438;2023-08-07T17:53:54;24.80;99.90
11656;DHT22;5884;43.618;1.438;2023-08-07T17:56:23;24.70;99.90
11656;DHT22;5884;43.618;1.438;2023-08-07T17:58:50;24.70;99.90
11656;DHT22;5884;43.618;1.438;2023-08-07T18:01:18;24.60;99.90
11656;DHT22;5884;43.618;1.438;2023-08-07T18:03:46;24.60;99.90
11656;DHT22;5884;43.618;1.438;2023-08-07T18:06:14;24.50;99.90
11656;DHT22;5884;43.618;1.438;2023-08-07T18:08:41;24.40;99.90
11656;DHT22;5884;43.618;1.438;2023-08-07T18:11:09;24.30;99.90
11656;DHT22;5884;43.618;1.438;2023-08-07T18:13:37;24.20;99.90
11656;DHT22;5884;43.618;1.438;2023-08-07T18:16:04;24.30;99.90
11656;DHT22;5884;43.618;1.438;2023-08-07T18:18:32;24.10;99.90
11656;DHT22;5884;43.618;1.438;2023-08-07T18:20:59;24.10;99.90
11656;DHT22;5884;43.618;1.438;2023-08-07T18:23:27;24.00;99.90
11656;DHT22;5884;43.618;1.438;2023-08-07T18:25:54;24.00;99.90
11656;DHT22;5884;43.618;1.438;2023-08-07T18:28:21;23.90;99.90
11656;DHT22;5884;43.618;1.438;2023-08-07T18:30:50;23.80;99.90
11656;DHT22;5884;43.618;1.438;2023-08-07T18:33:17;23.80;99.90
11656;DHT22;5884;43.618;1.438;2023-08-07T18:35:44;23.80;99.90
11656;DHT22;5884;43.618;1.438;2023-08-07T18:38:12;23.80;99.90
11656;DHT22;5884;43.618;1.438;2023-08-07T18:40:39;23.70;99.90
11656;DHT22;5884;43.618;1.438;2023-08-07T18:43:06;23.60;99.90
11656;DHT22;5884;43.618;1.438;2023-08-07T18:45:33;23.50;99.90
11656;DHT22;5884;43.618;1.438;2023-08-07T18:48:02;23.60;99.90
11656;DHT22;5884;43.618;1.438;2023-08-07T18:50:31;23.50;99.90
11656;DHT22;5884;43.618;1.438;2023-08-07T18:52:58;23.30;99.90
11656;DHT22;5884;43.618;1.438;2023-08-07T18:55:26;23.30;99.90
11656;DHT22;5884;43.618;1.438;2023-08-07T18:57:53;23.30;99.90
11656;DHT22;5884;43.618;1.438;2023-08-07T19:00:20;23.20;99.90
11656;DHT22;5884;43.618;1.438;2023-08-07T19:02:48;23.20;99.90
11656;DHT22;5884;43.618;1.438;2023-08-07T19:05:16;23.10;99.90
11656;DHT22;5884;43.618;1.438;2023-08-07T19:07:44;23.10;99.90
11656;DHT22;5884;43.618;1.438;2023-08-07T19:10:11;23.00;99.90
11656;DHT22;5884;43.618;1.438;2023-08-07T19:12:38;23.00;99.90
11656;DHT22;5884;43.618;1.438;2023-08-07T19:15:06;22.90;99.90
11656;DHT22;5884;43.618;1.438;2023-08-07T19:17:38;22.80;99.90
11656;DHT22;5884;43.618;1.438;2023-08-07T19:20:06;22.80;99.90
11656;DHT22;5884;43.618;1.438;2023-08-07T19:22:35;22.80;99.90
11656;DHT22;5884;43.618;1.438;2023-08-07T19:25:03;22.70;99.90
11656;DHT22;5884;43.618;1.438;2023-08-07T19:27:31;22.70;99.90
11656;DHT22;5884;43.618;1.438;2023-08-07T19:29:58;22.60;99.90
11656;DHT22;5884;43.618;1.438;2023-08-07T19:32:26;22.50;99.90
11656;DHT22;5884;43.618;1.438;2023-08-07T19:34:53;22.50;99.90
11656;DHT22;5884;43.618;1.438;2023-08-07T19:37:20;22.40;99.90
11656;DHT22;5884;43.618;1.438;2023-08-07T19:39:51;22.30;99.90
11656;DHT22;5884;43.618;1.438;2023-08-07T19:42:18;22.30;99.90
11656;DHT22;5884;43.618;1.438;2023-08-07T19:44:45;22.30;99.90
11656;DHT22;5884;43.618;1.438;2023-08-07T19:47:13;22.30;99.90
11656;DHT22;5884;43.618;1.438;2023-08-07T19:49:41;22.20;99.90
11656;DHT22;5884;43.618;1.438;2023-08-07T19:52:08;22.20;99.90
11656;DHT22;5884;43.618;1.438;2023-08-07T19:54:36;22.10;99.90
11656;DHT22;5884;43.618;1.438;2023-08-07T19:57:09;22.00;99.90
11656;DHT22;5884;43.618;1.438;2023-08-07T19:59:36;21.90;99.90
11656;DHT22;5884;43.618;1.438;2023-08-07T20:02:04;21.90;99.90
11656;DHT22;5884;43.618;1.438;2023-08-07T20:04:33;21.80;99.90
11656;DHT22;5884;43.618;1.438;2023-08-07T20:07:00;21.70;99.90
11656;DHT22;5884;43.618;1.438;2023-08-07T20:09:29;21.60;99.90
11656;DHT22;5884;43.618;1.438;2023-08-07T20:11:57;21.50;99.90
11656;DHT22;5884;43.618;1.438;2023-08-07T20:14:26;21.50;99.90
11656;DHT22;5884;43.618;1.438;2023-08-07T20:16:53;21.40;99.90
11656;DHT22;5884;43.618;1.438;2023-08-07T20:19:20;21.40;99.90
11656;DHT22;5884;43.618;1.438;2023-08-07T20:21:48;21.40;99.90
11656;DHT22;5884;43.618;1.438;2023-08-07T20:24:16;21.50;99.90
11656;DHT22;5884;43.618;1.438;2023-08-07T20:26:43;21.40;99.90
11656;DHT22;5884;43.618;1.438;2023-08-07T20:29:10;21.40;99.90
11656;DHT22;5884;43.618;1.438;2023-08-07T20:31:39;21.30;99.90
11656;DHT22;5884;43.618;1.438;2023-08-07T20:34:06;21.20;99.90
11656;DHT22;5884;43.618;1.438;2023-08-07T20:36:33;21.10;99.90